aviador You're here:

KSIK Decoded Metar

in
Report Time2017-05-24 17:55:00
UTC Time2017-05-24 17:53:40
Flight Rules vfr VFR
Wind300° at 05 kt
W.Decomp.*RWY 02: 0.9 kt HW 4.9 kt LCW
W.Rank300° ranks 36
Current wind is above 300° avg. (4.4)
Visibility9999 m
Phenomena:N/A
Clouds:Scattered 046 Hf
Scattered 050 Hf
Broken 090 Hf
Expected CloudBase > 4,400 ft AGL from Temp-Dew spread
Ceiling9,000 ft
Temp21°C
Dew Point10°C (50% RH)
AAT19.3°C
QNH1001 hPa
Raw Report
KSIK 241755Z AUTO 30005KT 10SM SCT046 SCT050 BKN090 21/10 A2955
RMK AO2=

Extra information for KSIK:More info

Social comments